Martin City, Missouri
Current Conditions -  °F | °C
As of 5:53 AM on Sunday 21 Dec 2014 (Local Time) from KOJC Reporting Station
Haze Haze  
Wind Chill: -1°   Ceiling: 400
Heat Index:   Visibility: 3mi
Dew Point:   Wind: 8mph
Humidity: 100%   Direction: 180°S
Pressure: 30.05"   Gusts: NA
Location:  38.8519°N, 94.5455°W
Report Text: KOJC 211153Z AUTO 18007KT 3SM BR BKN004 OVC018 02/02 A3005 RMK AO2 CIG 003V008 SLP183 T00220022 10022 20011 58012
Loading
Personal Weather Stations






























Interactive Weather Map New forecast layout! Learn more

10-Day Weather Forecast

Advertisements
Track Severe Weather on mobile